createdAt,value
2023-03-25T00:01:13.931Z,4.18
2023-03-25T00:03:42.028Z,4.17
2023-03-25T00:06:10.608Z,4.14
2023-03-25T00:08:37.312Z,4.11
2023-03-25T00:11:04.568Z,4.06
2023-03-25T00:13:31.876Z,4.04
2023-03-25T00:15:58.878Z,4.00
2023-03-25T00:18:26.612Z,3.97
2023-03-25T00:20:53.542Z,4.03
2023-03-25T00:23:20.855Z,4.03
2023-03-25T00:25:48.211Z,4.00
2023-03-25T00:28:16.142Z,4.03
2023-03-25T00:30:43.860Z,4.06
2023-03-25T00:33:11.114Z,4.11
2023-03-25T00:35:39.620Z,4.07
2023-03-25T00:38:07.842Z,4.06
2023-03-25T00:40:34.794Z,4.01
2023-03-25T00:43:02.125Z,4.02
2023-03-25T00:45:28.874Z,3.97
2023-03-25T00:47:55.595Z,3.96
2023-03-25T00:50:22.163Z,3.93
2023-03-25T00:52:49.003Z,3.94
2023-03-25T00:55:15.643Z,3.86
2023-03-25T00:57:42.191Z,3.88
2023-03-25T01:00:10.645Z,3.86
2023-03-25T01:02:39.474Z,3.83
2023-03-25T01:05:06.887Z,3.81
2023-03-25T01:07:33.567Z,3.80
2023-03-25T01:10:00.241Z,3.82
2023-03-25T01:12:27.236Z,3.82
2023-03-25T01:14:54.034Z,3.79
2023-03-25T01:17:21.053Z,3.82
2023-03-25T01:19:47.629Z,3.80
2023-03-25T01:22:14.232Z,3.79
2023-03-25T01:24:40.867Z,3.81
2023-03-25T01:27:07.434Z,3.85
2023-03-25T01:29:34.083Z,3.90
2023-03-25T01:32:00.799Z,3.93
2023-03-25T01:34:27.450Z,4.01
2023-03-25T01:36:55.955Z,4.00
2023-03-25T01:39:23.029Z,4.05
2023-03-25T01:41:51.295Z,4.07
2023-03-25T01:44:22.007Z,4.09
2023-03-25T01:46:53.070Z,4.12
2023-03-25T01:49:26.858Z,4.19
2023-03-25T01:51:58.349Z,4.22
2023-03-25T01:54:25.140Z,4.27
2023-03-25T01:56:52.435Z,4.35
2023-03-25T01:59:20.196Z,4.37
2023-03-25T02:01:47.128Z,4.43
2023-03-25T02:04:16.245Z,4.43
2023-03-25T02:06:44.370Z,4.39
2023-03-25T02:09:12.211Z,4.38
2023-03-25T02:11:39.314Z,4.37
2023-03-25T02:14:11.392Z,4.38
2023-03-25T02:17:04.056Z,4.38
2023-03-25T02:19:42.703Z,4.42
2023-03-25T02:22:14.742Z,4.47
2023-03-25T02:24:57.966Z,4.46
2023-03-25T02:27:47.170Z,4.47
2023-03-25T02:30:13.742Z,4.43
2023-03-25T02:32:49.174Z,4.47
2023-03-25T02:35:21.549Z,4.45
2023-03-25T02:38:09.260Z,4.42
2023-03-25T02:40:45.834Z,4.40
2023-03-25T02:43:17.526Z,4.40
2023-03-25T02:45:50.659Z,4.43
2023-03-25T02:48:25.784Z,4.44
2023-03-25T02:50:55.498Z,4.45
2023-03-25T02:53:29.837Z,4.47
2023-03-25T02:56:00.756Z,4.48
2023-03-25T02:58:30.935Z,4.53
2023-03-25T03:00:59.176Z,4.55
2023-03-25T03:03:27.301Z,4.62
2023-03-25T03:05:57.707Z,4.69
2023-03-25T03:08:43.333Z,4.71
2023-03-25T03:11:16.005Z,4.73
2023-03-25T03:13:59.112Z,4.75
2023-03-25T03:16:26.164Z,4.80
2023-03-25T03:19:11.869Z,4.80
2023-03-25T03:21:46.361Z,4.82
2023-03-25T03:24:27.799Z,4.86
2023-03-25T03:26:57.724Z,4.89
2023-03-25T03:29:51.110Z,4.87
2023-03-25T03:32:23.020Z,4.90
2023-03-25T03:34:54.632Z,4.94
2023-03-25T03:37:23.990Z,4.95
2023-03-25T03:39:52.442Z,4.97
2023-03-25T03:42:26.162Z,5.00
2023-03-25T03:44:58.205Z,5.06
2023-03-25T03:47:27.879Z,5.03
2023-03-25T03:49:58.035Z,5.02
2023-03-25T03:52:46.217Z,5.05
2023-03-25T03:55:15.059Z,5.08
2023-03-25T03:58:01.844Z,5.06
2023-03-25T04:00:50.869Z,5.13
2023-03-25T04:03:24.537Z,5.20
2023-03-25T04:06:00.997Z,5.23
2023-03-25T04:08:31.268Z,5.31
2023-03-25T04:11:04.355Z,5.33
2023-03-25T04:13:37.585Z,5.38
2023-03-25T04:16:04.302Z,5.46
2023-03-25T04:18:33.787Z,5.49
2023-03-25T04:21:01.066Z,5.58
2023-03-25T04:23:30.768Z,5.62
2023-03-25T04:25:57.915Z,5.72
2023-03-25T04:28:25.671Z,5.74
2023-03-25T04:30:55.801Z,5.76
2023-03-25T04:33:25.482Z,5.87
2023-03-25T04:35:52.433Z,5.93
2023-03-25T04:38:19.612Z,5.98
2023-03-25T04:40:46.815Z,6.00
2023-03-25T04:43:17.197Z,6.05
2023-03-25T04:45:49.543Z,6.10
2023-03-25T04:48:21.244Z,6.10
2023-03-25T04:50:48.416Z,6.16
2023-03-25T04:53:14.952Z,6.16
2023-03-25T04:55:48.083Z,6.22
2023-03-25T04:58:15.978Z,6.23
2023-03-25T05:00:43.909Z,6.24
2023-03-25T05:03:11.507Z,6.31
2023-03-25T05:05:38.672Z,6.35
2023-03-25T05:08:05.276Z,6.36
2023-03-25T05:10:32.379Z,6.43
2023-03-25T05:13:03.597Z,6.39
2023-03-25T05:15:39.256Z,6.44
2023-03-25T05:18:09.486Z,6.44
2023-03-25T05:20:39.949Z,6.44
2023-03-25T05:23:12.111Z,6.42
2023-03-25T05:25:39.099Z,6.43
2023-03-25T05:28:06.067Z,6.38
2023-03-25T05:30:33.861Z,6.39
2023-03-25T05:33:01.626Z,6.39
2023-03-25T05:35:28.256Z,6.39
2023-03-25T05:37:56.048Z,6.46
2023-03-25T05:40:22.872Z,6.60
2023-03-25T05:42:49.880Z,6.58
2023-03-25T05:45:16.779Z,6.64
2023-03-25T05:47:43.398Z,6.62
2023-03-25T05:50:10.595Z,6.67
2023-03-25T05:52:37.228Z,6.61
2023-03-25T05:55:05.016Z,6.61
2023-03-25T05:57:31.610Z,6.54
2023-03-25T05:59:58.237Z,6.59
2023-03-25T06:02:25.601Z,6.61
2023-03-25T06:04:52.286Z,6.68
2023-03-25T06:07:22.338Z,6.74
2023-03-25T06:09:49.826Z,6.81
2023-03-25T06:12:17.815Z,6.89
2023-03-25T06:14:45.894Z,6.98
2023-03-25T06:17:14.225Z,7.06
2023-03-25T06:19:41.090Z,7.11
2023-03-25T06:22:11.528Z,7.18
2023-03-25T06:24:39.027Z,7.28
2023-03-25T06:27:10.051Z,7.39
2023-03-25T06:29:41.943Z,7.50
2023-03-25T06:32:09.802Z,7.55
2023-03-25T06:34:37.066Z,7.61
2023-03-25T06:37:03.690Z,7.68
2023-03-25T06:39:31.403Z,7.68
2023-03-25T06:41:58.646Z,7.73
2023-03-25T06:44:25.456Z,7.73
2023-03-25T06:46:52.199Z,7.66
2023-03-25T06:49:19.191Z,7.66
2023-03-25T06:51:45.814Z,7.59
2023-03-25T06:54:12.349Z,7.52
2023-03-25T06:56:38.954Z,7.41
2023-03-25T06:59:06.071Z,7.34
2023-03-25T07:01:33.068Z,7.33
2023-03-25T07:03:59.637Z,7.31
2023-03-25T07:06:26.484Z,7.21
2023-03-25T07:08:53.104Z,7.17
2023-03-25T07:11:22.329Z,7.14
2023-03-25T07:13:48.974Z,7.07
2023-03-25T07:16:15.570Z,7.08
2023-03-25T07:18:42.156Z,7.14
2023-03-25T07:21:08.738Z,7.16
2023-03-25T07:23:35.396Z,7.17
2023-03-25T07:26:01.968Z,7.19
2023-03-25T07:28:28.531Z,7.19
2023-03-25T07:30:55.094Z,7.24
2023-03-25T07:33:21.637Z,7.35
2023-03-25T07:35:48.348Z,7.34
2023-03-25T07:38:14.985Z,7.37
2023-03-25T07:40:41.516Z,7.38
2023-03-25T07:43:08.124Z,7.39
2023-03-25T07:45:43.561Z,7.36
2023-03-25T07:48:14.873Z,7.38
2023-03-25T07:50:42.205Z,7.42
2023-03-25T07:53:08.759Z,7.46
2023-03-25T07:55:35.578Z,7.55
2023-03-25T07:58:02.884Z,7.58
2023-03-25T08:00:29.921Z,7.61
2023-03-25T08:02:56.635Z,7.66
2023-03-25T08:05:23.744Z,7.62
2023-03-25T08:07:53.864Z,7.68
2023-03-25T08:10:20.531Z,7.61
2023-03-25T08:12:47.229Z,7.59
2023-03-25T08:15:14.066Z,7.59
2023-03-25T08:17:41.048Z,7.63
2023-03-25T08:20:07.928Z,7.67
2023-03-25T08:22:34.506Z,7.63
2023-03-25T08:25:01.066Z,7.64
2023-03-25T08:27:27.655Z,7.56
2023-03-25T08:30:01.929Z,7.58
2023-03-25T08:32:28.862Z,7.58
2023-03-25T08:34:56.089Z,7.53
2023-03-25T08:37:23.954Z,7.50
2023-03-25T08:39:50.635Z,7.45
2023-03-25T08:42:17.790Z,7.39
2023-03-25T08:44:44.467Z,7.34
2023-03-25T08:47:13.908Z,7.29
2023-03-25T08:49:40.525Z,7.28
2023-03-25T08:52:08.820Z,7.29
2023-03-25T08:54:36.051Z,7.29
2023-03-25T08:57:02.721Z,7.27
2023-03-25T08:59:30.733Z,7.25
2023-03-25T09:01:58.881Z,7.24
2023-03-25T09:04:27.484Z,7.25
2023-03-25T09:07:11.033Z,7.26
2023-03-25T09:09:38.983Z,7.25
2023-03-25T09:12:06.540Z,7.28
2023-03-25T09:14:33.184Z,7.27
2023-03-25T09:16:59.878Z,7.32
2023-03-25T09:19:26.473Z,7.36
2023-03-25T09:21:53.332Z,7.40
2023-03-25T09:24:22.710Z,7.44
2023-03-25T09:26:49.801Z,7.48
2023-03-25T09:29:16.879Z,7.50
2023-03-25T09:31:43.702Z,7.56
2023-03-25T09:34:14.116Z,7.55
2023-03-25T09:36:48.388Z,7.52
2023-03-25T09:39:15.035Z,7.55
2023-03-25T09:41:54.019Z,7.56
2023-03-25T09:44:28.651Z,7.70
2023-03-25T09:46:56.726Z,7.71
2023-03-25T09:49:26.118Z,7.75
2023-03-25T09:51:54.032Z,7.75
2023-03-25T09:54:25.424Z,7.80
2023-03-25T09:56:53.297Z,7.94
2023-03-25T09:59:21.347Z,7.96
2023-03-25T10:01:58.482Z,8.01
2023-03-25T10:04:33.930Z,8.00
2023-03-25T10:07:18.858Z,8.05
2023-03-25T10:10:00.443Z,8.05
2023-03-25T10:12:32.696Z,8.08
2023-03-25T10:15:17.850Z,8.16
2023-03-25T10:18:02.817Z,8.19
2023-03-25T10:20:38.602Z,8.28
2023-03-25T10:23:15.772Z,8.32
2023-03-25T10:25:45.917Z,8.38
2023-03-25T10:28:17.088Z,8.38
2023-03-25T10:30:46.668Z,8.41
2023-03-25T10:33:36.714Z,8.51
2023-03-25T10:36:06.261Z,8.50
2023-03-25T10:38:34.877Z,8.55
2023-03-25T10:41:19.589Z,8.53
2023-03-25T10:43:46.292Z,8.57
2023-03-25T10:46:13.096Z,8.60
2023-03-25T10:48:40.136Z,8.67
2023-03-25T10:51:17.613Z,8.76
2023-03-25T10:53:47.159Z,8.77
2023-03-25T10:56:15.689Z,8.74
2023-03-25T10:58:43.612Z,8.82
2023-03-25T11:01:12.126Z,8.87
2023-03-25T11:03:39.499Z,8.87
2023-03-25T11:06:07.102Z,8.95
2023-03-25T11:08:33.956Z,8.96
2023-03-25T11:11:01.500Z,8.91
2023-03-25T11:13:30.676Z,9.00
2023-03-25T11:16:02.384Z,8.92
2023-03-25T11:18:40.245Z,8.93
2023-03-25T11:21:12.646Z,8.94
2023-03-25T11:23:47.493Z,8.89
2023-03-25T11:26:19.935Z,8.89
2023-03-25T11:28:50.873Z,8.88
2023-03-25T11:31:24.128Z,8.90
2023-03-25T11:34:09.499Z,8.92
2023-03-25T11:36:37.888Z,8.91
2023-03-25T11:39:14.567Z,8.85
2023-03-25T11:41:41.159Z,8.83
2023-03-25T11:44:08.255Z,8.74
2023-03-25T11:46:41.563Z,8.74
2023-03-25T11:49:09.882Z,8.70
2023-03-25T11:51:36.689Z,8.72
2023-03-25T11:54:07.017Z,8.71
2023-03-25T11:56:36.026Z,8.72
2023-03-25T11:59:03.200Z,8.75
2023-03-25T12:01:36.984Z,8.74
2023-03-25T12:04:12.752Z,8.70
2023-03-25T12:06:52.896Z,8.66
2023-03-25T12:09:19.537Z,8.71
2023-03-25T12:12:06.490Z,8.71
2023-03-25T12:14:51.674Z,8.72
2023-03-25T12:17:36.878Z,8.73
2023-03-25T12:20:23.721Z,8.69
2023-03-25T12:23:00.302Z,8.70
2023-03-25T12:25:36.069Z,8.79
2023-03-25T12:28:02.648Z,8.70
2023-03-25T12:30:35.362Z,8.76
2023-03-25T12:33:22.317Z,8.74
2023-03-25T12:36:14.194Z,8.76
2023-03-25T12:38:59.153Z,8.82
2023-03-25T12:41:34.524Z,8.87
2023-03-25T12:44:04.429Z,8.94
2023-03-25T12:46:33.894Z,9.00
2023-03-25T12:49:26.508Z,9.04
2023-03-25T12:51:53.042Z,9.01
2023-03-25T12:54:38.491Z,8.95
2023-03-25T12:57:14.039Z,9.10
2023-03-25T13:00:08.094Z,9.06
2023-03-25T13:02:53.229Z,9.07
2023-03-25T13:05:25.068Z,9.07
2023-03-25T13:07:55.966Z,9.02
2023-03-25T13:10:25.121Z,9.10
2023-03-25T13:12:54.092Z,9.04
2023-03-25T13:15:28.399Z,9.13
2023-03-25T13:18:00.703Z,9.17
2023-03-25T13:20:30.075Z,9.21
2023-03-25T13:23:01.796Z,9.17
2023-03-25T13:25:47.063Z,9.16
2023-03-25T13:28:16.970Z,9.20
2023-03-25T13:30:45.445Z,9.19
2023-03-25T13:33:17.112Z,9.28
2023-03-25T13:35:47.626Z,9.36
2023-03-25T13:38:40.653Z,9.28
2023-03-25T13:41:25.692Z,9.30
2023-03-25T13:44:04.752Z,9.32
2023-03-25T13:46:43.297Z,9.32
2023-03-25T13:49:24.357Z,9.28
2023-03-25T13:51:50.977Z,9.20
2023-03-25T13:54:27.207Z,9.11
2023-03-25T13:57:14.061Z,9.13
2023-03-25T13:59:59.194Z,9.18
2023-03-25T14:02:26.044Z,9.21
2023-03-25T14:05:02.117Z,9.22
2023-03-25T14:07:32.481Z,9.29
2023-03-25T14:09:59.007Z,9.30
2023-03-25T14:12:32.029Z,9.34
2023-03-25T14:15:07.899Z,9.33
2023-03-25T14:17:36.201Z,9.40
2023-03-25T14:20:08.313Z,9.38
2023-03-25T14:22:40.897Z,9.41
2023-03-25T14:25:27.492Z,9.28
2023-03-25T14:27:54.352Z,9.31
2023-03-25T14:30:26.060Z,9.31
2023-03-25T14:32:54.955Z,9.28
2023-03-25T14:35:34.426Z,9.13
2023-03-25T14:38:09.975Z,9.16
2023-03-25T14:40:47.872Z,9.13
2023-03-25T14:43:33.107Z,9.11
2023-03-25T14:46:12.978Z,9.13
2023-03-25T14:48:45.089Z,9.10
2023-03-25T14:51:14.742Z,9.06
2023-03-25T14:53:42.082Z,9.08
2023-03-25T14:56:15.641Z,9.13
2023-03-25T14:58:42.351Z,9.11
2023-03-25T15:01:14.781Z,9.02
2023-03-25T15:03:45.766Z,9.00
2023-03-25T15:06:18.177Z,8.96
2023-03-25T15:08:52.072Z,8.94
2023-03-25T15:11:25.109Z,8.94
2023-03-25T15:13:55.554Z,8.98
2023-03-25T15:16:36.035Z,8.98
2023-03-25T15:19:12.881Z,8.95
2023-03-25T15:21:57.590Z,8.92
2023-03-25T15:24:34.248Z,8.90
2023-03-25T15:27:02.403Z,8.91
2023-03-25T15:29:47.582Z,8.86
2023-03-25T15:32:14.220Z,8.93
2023-03-25T15:34:59.455Z,8.90
2023-03-25T15:37:46.911Z,8.89
2023-03-25T15:40:33.964Z,8.83
2023-03-25T15:43:06.418Z,8.87
2023-03-25T15:45:48.112Z,8.86
2023-03-25T15:48:32.781Z,8.78
2023-03-25T15:50:59.283Z,8.77
2023-03-25T15:53:41.908Z,8.77
2023-03-25T15:56:13.791Z,8.70
2023-03-25T15:58:55.869Z,8.66
2023-03-25T16:01:33.943Z,8.73
2023-03-25T16:04:17.095Z,8.68
2023-03-25T16:06:46.986Z,8.69
2023-03-25T16:09:35.339Z,8.68
2023-03-25T16:12:02.896Z,8.65
2023-03-25T16:14:31.054Z,8.69
2023-03-25T16:16:59.191Z,8.64
2023-03-25T16:19:35.464Z,8.63
2023-03-25T16:22:03.585Z,8.60
2023-03-25T16:24:34.246Z,8.62
2023-03-25T16:27:20.609Z,8.58
2023-03-25T16:29:48.039Z,8.55
2023-03-25T16:32:19.325Z,8.53
2023-03-25T16:34:46.696Z,8.46
2023-03-25T16:37:13.792Z,8.44
2023-03-25T16:39:40.598Z,8.46
2023-03-25T16:42:15.166Z,8.48
2023-03-25T16:44:47.954Z,8.46
2023-03-25T16:47:15.884Z,8.41
2023-03-25T16:49:46.202Z,8.44
2023-03-25T16:52:19.584Z,8.42
2023-03-25T16:54:52.329Z,8.36
2023-03-25T16:57:20.629Z,8.35
2023-03-25T16:59:47.752Z,8.35
2023-03-25T17:02:31.190Z,8.33
2023-03-25T17:05:18.996Z,8.28
2023-03-25T17:07:48.066Z,8.27
2023-03-25T17:10:28.252Z,8.27
2023-03-25T17:13:07.444Z,8.26
2023-03-25T17:15:35.007Z,8.25
2023-03-25T17:18:03.593Z,8.26
2023-03-25T17:20:41.532Z,8.20
2023-03-25T17:23:08.412Z,8.20
2023-03-25T17:25:36.888Z,8.18
2023-03-25T17:28:28.775Z,8.15
2023-03-25T17:30:55.734Z,8.11
2023-03-25T17:33:42.620Z,8.07
2023-03-25T17:36:13.505Z,8.10
2023-03-25T17:38:48.588Z,8.09
2023-03-25T17:41:17.042Z,8.09
2023-03-25T17:43:45.456Z,8.16
2023-03-25T17:46:16.281Z,8.22
2023-03-25T17:48:46.447Z,8.25
2023-03-25T17:51:16.669Z,8.23
2023-03-25T17:53:43.356Z,8.28
2023-03-25T17:56:16.817Z,8.24
2023-03-25T17:58:44.153Z,8.23
2023-03-25T18:01:14.037Z,8.18
2023-03-25T18:03:40.772Z,8.16
2023-03-25T18:06:07.657Z,8.20
2023-03-25T18:08:35.371Z,8.12
2023-03-25T18:11:02.316Z,8.18
2023-03-25T18:13:29.389Z,8.11
2023-03-25T18:15:56.246Z,8.10
2023-03-25T18:18:24.831Z,8.07
2023-03-25T18:20:52.386Z,8.06
2023-03-25T18:23:19.120Z,8.03
2023-03-25T18:25:45.782Z,7.99
2023-03-25T18:28:13.456Z,7.99
2023-03-25T18:30:49.484Z,8.01
2023-03-25T18:33:16.460Z,8.00
2023-03-25T18:35:43.693Z,8.04
2023-03-25T18:38:16.502Z,8.01
2023-03-25T18:40:43.376Z,8.01
2023-03-25T18:43:09.923Z,8.00
2023-03-25T18:45:37.538Z,7.94
2023-03-25T18:48:04.639Z,7.93
2023-03-25T18:50:32.775Z,8.00
2023-03-25T18:52:59.715Z,7.95
2023-03-25T18:55:27.546Z,8.03
2023-03-25T18:57:54.881Z,8.02
2023-03-25T19:00:26.960Z,7.98
2023-03-25T19:02:53.823Z,7.96
2023-03-25T19:05:21.441Z,7.95
2023-03-25T19:07:49.361Z,7.95
2023-03-25T19:10:18.340Z,7.94
2023-03-25T19:12:46.134Z,7.92
2023-03-25T19:15:13.863Z,7.94
2023-03-25T19:17:40.493Z,7.91
2023-03-25T19:20:07.723Z,7.95
2023-03-25T19:22:34.498Z,7.95
2023-03-25T19:25:01.563Z,8.07
2023-03-25T19:27:29.258Z,8.05
2023-03-25T19:29:56.060Z,8.01
2023-03-25T19:32:23.041Z,7.94
2023-03-25T19:34:51.374Z,7.94
2023-03-25T19:37:18.242Z,7.93
2023-03-25T19:39:45.120Z,7.95
2023-03-25T19:42:11.882Z,7.91
2023-03-25T19:44:38.678Z,7.87
2023-03-25T19:47:05.455Z,7.91
2023-03-25T19:49:39.827Z,7.84
2023-03-25T19:52:07.843Z,7.82
2023-03-25T19:54:34.527Z,7.81
2023-03-25T19:57:01.548Z,7.88
2023-03-25T19:59:28.302Z,7.83
2023-03-25T20:01:55.137Z,7.87
2023-03-25T20:04:21.813Z,7.80
2023-03-25T20:06:48.627Z,7.88
2023-03-25T20:09:15.272Z,7.89
2023-03-25T20:11:41.892Z,7.86
2023-03-25T20:14:08.477Z,7.81
2023-03-25T20:16:35.132Z,7.76
2023-03-25T20:19:01.805Z,7.78
2023-03-25T20:21:28.524Z,7.78
2023-03-25T20:23:55.225Z,7.81
2023-03-25T20:26:21.918Z,7.78
2023-03-25T20:28:49.424Z,7.81
2023-03-25T20:31:18.704Z,7.79
2023-03-25T20:33:45.998Z,7.78
2023-03-25T20:36:12.999Z,7.75
2023-03-25T20:38:42.065Z,7.71
2023-03-25T20:41:17.255Z,7.69
2023-03-25T20:43:44.208Z,7.68
2023-03-25T20:46:13.658Z,7.65
2023-03-25T20:48:40.811Z,7.62
2023-03-25T20:51:10.138Z,7.60
2023-03-25T20:53:36.721Z,7.61
2023-03-25T20:56:04.111Z,7.58
2023-03-25T20:58:30.790Z,7.60
2023-03-25T21:00:59.020Z,7.58
2023-03-25T21:03:26.553Z,7.62
2023-03-25T21:05:57.979Z,7.63
2023-03-25T21:08:30.422Z,7.64
2023-03-25T21:11:01.626Z,7.67
2023-03-25T21:13:33.862Z,7.64
2023-03-25T21:16:01.841Z,7.66
2023-03-25T21:18:29.264Z,7.61
2023-03-25T21:20:57.278Z,7.61
2023-03-25T21:23:28.328Z,7.64
2023-03-25T21:25:56.999Z,7.60
2023-03-25T21:28:23.562Z,7.61
2023-03-25T21:30:58.408Z,7.60
2023-03-25T21:33:25.761Z,7.55
2023-03-25T21:35:54.009Z,7.57
2023-03-25T21:38:29.515Z,7.58
2023-03-25T21:40:57.336Z,7.57
2023-03-25T21:43:24.376Z,7.57
2023-03-25T21:45:51.219Z,7.59
2023-03-25T21:48:18.285Z,7.59
2023-03-25T21:50:48.986Z,7.55
2023-03-25T21:53:19.317Z,7.52
2023-03-25T21:55:55.316Z,7.50
2023-03-25T21:58:22.323Z,7.42
2023-03-25T22:00:48.993Z,7.42
2023-03-25T22:03:17.261Z,7.43
2023-03-25T22:05:43.907Z,7.40
2023-03-25T22:08:10.494Z,7.40
2023-03-25T22:10:37.002Z,7.40
2023-03-25T22:13:03.687Z,7.38
2023-03-25T22:15:30.362Z,7.41
2023-03-25T22:17:56.938Z,7.44
2023-03-25T22:20:23.697Z,7.47
2023-03-25T22:22:51.463Z,7.49
2023-03-25T22:25:18.536Z,7.42
2023-03-25T22:27:46.147Z,7.42
2023-03-25T22:30:13.076Z,7.39
2023-03-25T22:32:39.745Z,7.39
2023-03-25T22:35:06.611Z,7.38
2023-03-25T22:37:34.242Z,7.34
2023-03-25T22:40:00.843Z,7.28
2023-03-25T22:42:29.642Z,7.27
2023-03-25T22:44:56.434Z,7.28
2023-03-25T22:47:23.026Z,7.28
2023-03-25T22:49:49.648Z,7.27
2023-03-25T22:52:16.215Z,7.29
2023-03-25T22:54:42.865Z,7.30
2023-03-25T22:57:09.713Z,7.30
2023-03-25T22:59:36.428Z,7.29
2023-03-25T23:02:03.047Z,7.24
2023-03-25T23:04:29.701Z,7.21
2023-03-25T23:07:06.822Z,7.18
2023-03-25T23:09:44.881Z,7.16
2023-03-25T23:12:12.628Z,7.10
2023-03-25T23:14:40.644Z,7.07
2023-03-25T23:17:07.673Z,7.07
2023-03-25T23:19:34.340Z,7.05
2023-03-25T23:22:00.894Z,7.01
2023-03-25T23:24:27.841Z,6.98
2023-03-25T23:26:54.479Z,6.94
2023-03-25T23:29:21.064Z,6.94
2023-03-25T23:31:48.166Z,6.93
2023-03-25T23:34:16.724Z,6.89
2023-03-25T23:36:43.979Z,6.86
2023-03-25T23:39:12.045Z,6.82
2023-03-25T23:41:38.597Z,6.79
2023-03-25T23:44:05.904Z,6.76
2023-03-25T23:46:32.617Z,6.71
2023-03-25T23:49:02.601Z,6.68
2023-03-25T23:51:32.894Z,6.63
2023-03-25T23:53:59.634Z,6.58
2023-03-25T23:56:26.209Z,6.57
2023-03-25T23:58:53.889Z,6.55
